Time;durP1;ratioP1;P1;durP2;ratioP2;P2;SDS_P1;SDS_P2;PMS_P1;PMS_P2;Temp;Humidity;BMP_temperature;BMP_pressure;BME280_temperature;BME280_humidity;BME280_pressure;Samples;Min_cycle;Max_cycle;Signal;HPM_P1;HPM_P2
2022/06/14 00:00:57;;;;;;;;;6.00;4.50;;;;;-146.67;27.39;74376.13;5082320;27;61809;-80
2022/06/14 00:03:35;;;;;;;;;6.75;6.50;;;;;-146.67;27.31;74390.09;5080527;28;61655;-80
2022/06/14 00:06:07;;;;;;;;;6.00;6.00;;;;;-146.67;27.57;74390.09;5082125;27;61984;-80
2022/06/14 00:08:33;;;;;;;;;9.75;5.00;;;;;-146.67;27.46;74388.09;5081142;28;61874;-80
2022/06/14 00:11:04;;;;;;;;;6.25;5.50;;;;;-146.67;27.79;74384.13;5081690;27;61760;-79
2022/06/14 00:13:29;;;;;;;;;4.75;4.75;;;;;-146.67;27.64;74398.09;5080155;28;61844;-80
2022/06/14 00:15:55;;;;;;;;;5.75;4.75;;;;;-146.67;27.62;74400.09;5080522;28;61738;-80
2022/06/14 00:18:21;;;;;;;;;6.50;5.50;;;;;-146.67;27.87;74406.06;5081378;27;63147;-80
2022/06/14 00:20:47;;;;;;;;;4.25;4.00;;;;;-146.67;27.87;74402.09;5081908;27;61838;-80
2022/06/14 00:23:16;;;;;;;;;6.00;5.00;;;;;-146.67;27.82;74404.09;5080170;28;61883;-80
2022/06/14 00:25:44;;;;;;;;;3.75;3.75;;;;;-146.67;27.36;74364.16;5081384;27;61939;-80
2022/06/14 00:28:12;;;;;;;;;4.50;3.00;;;;;-146.67;27.62;74364.16;5081091;27;61897;-80
2022/06/14 00:30:41;;;;;;;;;3.75;3.75;;;;;-146.67;27.56;74382.13;5081877;27;62002;-80
2022/06/14 00:33:06;;;;;;;;;2.00;2.00;;;;;-146.67;27.62;74410.06;5082755;28;61920;-80
2022/06/14 00:35:32;;;;;;;;;3.75;3.75;;;;;-146.67;27.75;74424.03;5083812;28;62349;-80
2022/06/14 00:38:00;;;;;;;;;5.50;3.50;;;;;-146.67;27.64;74424.03;5084288;27;61766;-80
2022/06/14 00:40:31;;;;;;;;;2.00;2.00;;;;;-146.67;27.74;74418.06;5084768;28;61876;-80
2022/06/14 00:42:57;;;;;;;;;4.50;3.75;;;;;-146.67;27.80;74430.03;5084911;27;62031;-80
2022/06/14 00:45:22;;;;;;;;;3.00;3.00;;;;;-146.67;27.56;74440.00;5083572;28;62064;-80
2022/06/14 00:47:57;;;;;;;;;3.25;2.75;;;;;-146.67;27.66;74432.03;5084952;27;61895;-80
2022/06/14 00:50:29;;;;;;;;;5.25;3.00;;;;;-146.67;27.62;74438.03;5084795;27;61913;-79
2022/06/14 00:53:07;;;;;;;;;3.25;3.25;;;;;-146.67;27.79;74442.00;5085091;28;61716;-79
2022/06/14 00:55:45;;;;;;;;;2.25;2.00;;;;;-146.67;27.73;74448.00;5084647;27;62377;-80
2022/06/14 00:58:26;;;;;;;;;2.00;2.00;;;;;-146.67;27.60;74444.00;5084209;27;61826;-80
2022/06/14 01:01:17;;;;;;;;;3.75;3.75;;;;;-146.67;27.71;74444.00;5085180;27;61969;-80
2022/06/14 01:03:50;;;;;;;;;2.75;2.75;;;;;-146.67;27.76;74446.00;5084961;27;61708;-80
2022/06/14 01:06:24;;;;;;;;;4.75;3.75;;;;;-146.67;27.84;74440.00;5084856;27;61942;-80
2022/06/14 01:08:58;;;;;;;;;3.00;2.75;;;;;-146.67;28.01;74448.00;5083949;27;61793;-80
2022/06/14 01:11:32;;;;;;;;;5.25;3.00;;;;;-146.67;27.70;74452.00;5084206;27;61806;-80
2022/06/14 01:14:01;;;;;;;;;3.00;3.00;;;;;-146.67;27.73;74450.00;5084846;28;61997;-80
2022/06/14 01:16:26;;;;;;;;;3.25;2.00;;;;;-146.67;27.71;74457.97;5084497;27;61659;-80
2022/06/14 01:18:52;;;;;;;;;3.00;2.75;;;;;-146.67;27.90;74461.97;5084192;27;62027;-80
2022/06/14 01:21:17;;;;;;;;;5.00;3.50;;;;;-146.67;28.16;74467.97;5084790;28;61885;-80
2022/06/14 01:23:43;;;;;;;;;2.75;2.75;;;;;-146.67;28.08;74473.97;5084505;27;61921;-80
2022/06/14 01:26:24;;;;;;;;;3.50;3.00;;;;;-146.67;28.06;74479.94;5084804;28;62019;-80
2022/06/14 01:29:02;;;;;;;;;5.00;4.00;;;;;-146.67;27.90;74487.94;5083898;28;61905;-80
2022/06/14 01:31:31;;;;;;;;;4.00;3.00;;;;;-146.67;28.16;74495.91;5084347;27;61743;-80
2022/06/14 01:34:03;;;;;;;;;2.00;2.00;;;;;-146.67;28.17;74505.91;5084664;28;62200;-80
2022/06/14 01:36:34;;;;;;;;;2.50;2.50;;;;;-146.67;28.26;74523.88;5084042;27;61814;-79
2022/06/14 01:39:03;;;;;;;;;3.75;3.75;;;;;-146.67;28.39;74529.84;5082295;28;64084;-80
2022/06/14 01:41:40;;;;;;;;;2.25;2.25;;;;;-146.67;28.29;74539.84;5083801;27;61912;-80
2022/06/14 01:44:25;;;;;;;;;2.75;2.00;;;;;-146.67;28.41;74557.81;5083745;27;61932;-80
2022/06/14 01:47:05;;;;;;;;;2.25;2.25;;;;;-146.67;28.49;74563.78;5082936;28;61912;-80
2022/06/14 01:52:46;;;;;;;;;2.75;2.75;;;;;-146.67;28.44;74563.78;5084056;28;61832;-80
2022/06/14 01:55:25;;;;;;;;;3.00;2.50;;;;;-146.67;28.48;74567.78;5083279;28;61932;-79
2022/06/14 01:58:05;;;;;;;;;3.00;3.00;;;;;-146.67;28.69;74573.78;5086911;27;61983;-80
2022/06/14 02:00:42;;;;;;;;;3.25;2.50;;;;;-146.67;28.67;74583.75;5083002;27;61799;-80
2022/06/14 02:06:14;;;;;;;;;3.25;3.00;;;;;-146.67;28.73;74579.78;5083814;28;61772;-80
2022/06/14 02:08:49;;;;;;;;;5.00;1.75;;;;;-146.67;28.75;74587.75;5082285;28;61909;-80
2022/06/14 02:11:22;;;;;;;;;3.50;3.50;;;;;-146.67;28.98;74593.75;5083207;28;61914;-80
2022/06/14 02:14:32;;;;;;;;;2.00;2.00;;;;;-146.67;29.03;74603.72;5083221;28;62041;-79
2022/06/14 02:17:07;;;;;;;;;5.00;3.00;;;;;-146.67;29.05;74591.75;5023964;28;62058;-80
2022/06/14 02:19:50;;;;;;;;;3.00;3.00;;;;;-146.67;29.06;74603.72;5040830;28;62158;-80
2022/06/14 02:22:22;;;;;;;;;2.25;2.25;;;;;-146.67;29.11;74607.72;5040220;28;61939;-80
2022/06/14 02:25:01;;;;;;;;;2.50;2.50;;;;;-146.67;29.07;74617.69;5040290;28;61852;-79
2022/06/14 02:27:41;;;;;;;;;2.75;2.75;;;;;-146.67;29.10;74619.69;5040595;28;62009;-80
2022/06/14 02:30:09;;;;;;;;;3.25;2.50;;;;;-146.67;29.30;74619.69;5040779;28;62008;-80
2022/06/14 02:32:41;;;;;;;;;3.00;3.00;;;;;-146.67;29.16;74613.72;5039721;28;62739;-80
2022/06/14 02:35:14;;;;;;;;;6.00;1.75;;;;;-146.67;28.95;74611.72;5040251;28;61854;-79
2022/06/14 02:38:17;;;;;;;;;6.50;3.00;;;;;-146.67;29.16;74617.69;5040204;28;61807;-80
2022/06/14 02:40:48;;;;;;;;;2.75;2.75;;;;;-146.67;29.19;74619.69;4961502;28;62040;-80
2022/06/14 02:43:31;;;;;;;;;5.00;3.75;;;;;-146.67;29.38;74627.69;4960142;28;62007;-80
2022/06/14 02:46:02;;;;;;;;;4.50;2.50;;;;;-146.67;29.23;74629.69;4961138;28;61712;-79
2022/06/14 02:48:47;;;;;;;;;6.00;3.25;;;;;-146.67;29.26;74631.69;5008849;28;62018;-80
2022/06/14 02:51:16;;;;;;;;;4.00;4.00;;;;;-146.67;29.03;74621.69;5020493;28;62035;-80
2022/06/14 02:54:06;;;;;;;;;4.75;3.00;;;;;-146.67;29.20;74643.66;5002637;28;64721;-79
2022/06/14 02:56:39;;;;;;;;;3.00;3.00;;;;;-146.67;29.13;74595.75;5018649;28;62051;-79
2022/06/14 02:59:07;;;;;;;;;6.00;3.00;;;;;-146.67;28.99;74573.78;5013160;28;61975;-79
2022/06/14 03:01:45;;;;;;;;;4.25;4.00;;;;;-146.67;29.24;74623.69;5000354;28;61825;-80
2022/06/14 03:04:19;;;;;;;;;3.00;3.00;;;;;-146.67;29.46;74649.66;4983017;28;64691;-80
2022/06/14 03:06:47;;;;;;;;;4.25;3.00;;;;;-146.67;29.36;74663.63;5000134;28;62367;-80
2022/06/14 03:09:20;;;;;;;;;3.00;2.75;;;;;-146.67;29.34;74661.63;4999899;28;61991;-79
2022/06/14 03:11:51;;;;;;;;;7.00;5.25;;;;;-146.67;29.74;74665.63;5000070;28;61888;-79
2022/06/14 03:14:35;;;;;;;;;4.50;3.00;;;;;-146.67;29.61;74667.63;5027226;28;61947;-80
2022/06/14 03:17:18;;;;;;;;;1.25;1.25;;;;;-146.67;29.56;74673.59;5081054;28;61852;-79
2022/06/14 03:19:46;;;;;;;;;5.75;2.75;;;;;-146.67;29.65;74669.63;5081090;28;62154;-79
2022/06/14 03:22:24;;;;;;;;;4.25;4.00;;;;;-146.67;29.82;74663.63;5083151;28;61786;-80
2022/06/14 03:24:59;;;;;;;;;6.50;5.00;;;;;-146.67;29.77;74671.59;5081846;28;62000;-80
2022/06/14 03:27:35;;;;;;;;;3.00;2.50;;;;;-146.67;29.46;74677.59;5082143;28;61985;-79
2022/06/14 03:30:11;;;;;;;;;4.00;2.00;;;;;-146.67;29.65;74673.59;5082558;28;61994;-80
2022/06/14 03:32:45;;;;;;;;;3.75;3.00;;;;;-146.67;29.82;74689.56;5082833;28;61774;-79
2022/06/14 03:35:26;;;;;;;;;3.00;3.00;;;;;-146.67;29.95;74701.56;5081775;28;61858;-79
2022/06/14 03:37:52;;;;;;;;;1.00;1.00;;;;;-146.67;29.92;74705.53;5082001;28;62121;-79
2022/06/14 03:40:21;;;;;;;;;6.50;2.75;;;;;-146.67;29.72;74711.53;5081150;28;62166;-79
2022/06/14 03:42:46;;;;;;;;;2.00;2.00;;;;;-146.67;29.90;74707.53;5081155;28;62053;-79
2022/06/14 03:45:17;;;;;;;;;2.25;2.25;;;;;-146.67;30.00;74709.53;5081853;28;62562;-79
2022/06/14 03:47:43;;;;;;;;;2.25;2.25;;;;;-146.67;30.06;74713.53;5080809;28;62035;-80
2022/06/14 03:50:12;;;;;;;;;3.25;2.00;;;;;-146.67;30.03;74719.53;5082441;28;61839;-79
2022/06/14 03:52:48;;;;;;;;;1.25;1.25;;;;;-146.67;30.02;74719.53;5082733;27;61870;-80
2022/06/14 03:55:40;;;;;;;;;2.00;2.00;;;;;-146.67;29.98;74727.50;5081391;28;61833;-80
2022/06/14 03:58:14;;;;;;;;;1.50;1.50;;;;;-146.67;30.10;74725.50;5081565;28;61973;-80
2022/06/14 04:01:07;;;;;;;;;1.50;1.50;;;;;-146.67;30.28;74725.50;5081929;27;62044;-79
2022/06/14 04:04:17;;;;;;;;;1.00;1.00;;;;;-146.67;30.26;74725.50;5082289;28;61791;-80
2022/06/14 04:06:42;;;;;;;;;2.75;1.75;;;;;-146.67;30.21;74725.50;5081373;27;61871;-80
2022/06/14 04:09:23;;;;;;;;;1.00;1.00;;;;;-146.67;30.26;74727.50;5081729;27;62187;-80
2022/06/14 04:12:06;;;;;;;;;3.25;1.00;;;;;-146.67;30.36;74729.50;5081509;27;61996;-80
2022/06/14 04:14:34;;;;;;;;;1.00;1.00;;;;;-146.67;30.32;74731.50;5081010;28;61801;-80
2022/06/14 04:17:38;;;;;;;;;4.00;3.00;;;;;-146.67;30.37;74741.50;5081083;28;62903;-80
2022/06/14 04:20:16;;;;;;;;;4.75;2.75;;;;;-146.67;30.21;74731.50;5058747;28;61977;-80
2022/06/14 04:22:42;;;;;;;;;3.00;3.00;;;;;-146.67;30.59;74729.50;5058984;28;62085;-80
2022/06/14 04:25:22;;;;;;;;;2.00;2.00;;;;;-146.67;30.34;74731.50;5058864;28;61879;-80
2022/06/14 04:27:59;;;;;;;;;3.75;3.00;;;;;-146.67;30.31;74737.50;5041435;28;63680;-80
2022/06/14 04:30:36;;;;;;;;;3.00;3.00;;;;;-146.67;30.46;74727.50;5058911;28;61981;-80
2022/06/14 04:33:21;;;;;;;;;3.00;1.75;;;;;-146.67;30.16;74725.50;5058794;28;61948;-80
2022/06/14 04:35:58;;;;;;;;;0.00;0.00;;;;;-146.67;30.37;74725.50;5058807;28;61945;-80
2022/06/14 04:38:24;;;;;;;;;2.25;2.00;;;;;-146.67;30.40;74723.50;5058291;28;63312;-80
2022/06/14 04:40:59;;;;;;;;;3.75;2.00;;;;;-146.67;30.43;74719.53;5059079;28;61925;-79
2022/06/14 04:43:50;;;;;;;;;2.00;2.00;;;;;-146.67;30.29;74717.53;5041751;28;62128;-80
2022/06/14 04:46:25;;;;;;;;;3.00;3.00;;;;;-146.67;30.59;74725.50;5050145;28;62055;-79
2022/06/14 04:49:23;;;;;;;;;2.00;2.00;;;;;-146.67;30.49;74719.53;5058552;28;62204;-80
2022/06/14 04:51:52;;;;;;;;;4.00;2.50;;;;;-146.67;30.37;74715.53;4998300;28;61961;-80
2022/06/14 04:54:27;;;;;;;;;3.50;1.75;;;;;-146.67;30.45;74707.53;4982241;28;61931;-79
2022/06/14 04:57:03;;;;;;;;;4.75;2.00;;;;;-146.67;30.29;74709.53;4996401;28;62085;-79
2022/06/14 04:59:52;;;;;;;;;4.00;2.00;;;;;-146.67;30.22;74705.53;5037724;28;61930;-79
2022/06/14 05:02:25;;;;;;;;;4.25;3.00;;;;;-146.67;30.25;74709.53;5038274;28;62009;-80
2022/06/14 05:04:56;;;;;;;;;3.00;3.00;;;;;-146.67;30.60;74701.56;5038653;28;61929;-80
2022/06/14 05:07:34;;;;;;;;;3.00;2.00;;;;;-146.67;30.29;74685.59;5037905;28;61949;-80
2022/06/14 05:10:07;;;;;;;;;4.00;2.75;;;;;-146.67;30.40;74679.59;5037776;28;64913;-80
2022/06/14 05:12:52;;;;;;;;;4.00;3.00;;;;;-146.67;30.24;74679.59;5038192;28;61980;-82
2022/06/14 05:15:32;;;;;;;;;2.00;2.00;;;;;-146.67;30.20;74657.63;5021090;28;62193;-79
2022/06/14 05:18:10;;;;;;;;;4.50;3.50;;;;;-146.67;30.12;74649.66;5038387;28;61772;-80
2022/06/14 05:21:09;;;;;;;;;2.50;2.50;;;;;-146.67;29.96;74633.69;5040923;28;61853;-79
2022/06/14 05:23:50;;;;;;;;;2.50;2.50;;;;;-146.67;30.17;74637.66;5041814;28;61919;-79
2022/06/14 05:26:40;;;;;;;;;2.50;2.25;;;;;-146.67;30.00;74627.69;5041132;28;61877;-79
2022/06/14 05:29:29;;;;;;;;;2.75;2.00;;;;;-146.67;29.97;74607.72;5070054;28;62177;-80
2022/06/14 05:32:02;;;;;;;;;2.75;2.00;;;;;-146.67;29.50;74573.78;5083878;28;61796;-79
2022/06/14 05:34:40;;;;;;;;;2.00;2.00;;;;;-146.67;29.49;74549.81;5083045;28;61870;-80
2022/06/14 05:37:24;;;;;;;;;2.00;2.00;;;;;-146.67;29.27;74491.94;5081116;28;61992;-79
2022/06/14 05:40:08;;;;;;;;;1.75;1.75;;;;;-146.67;28.87;74408.06;5081980;28;61926;-80
2022/06/14 05:42:44;;;;;;;;;3.00;2.00;;;;;-146.67;28.41;74336.19;5080800;28;61891;-79
2022/06/14 05:45:12;;;;;;;;;1.00;1.00;;;;;-146.67;27.87;74278.31;5081956;28;62009;-80
2022/06/14 05:47:48;;;;;;;;;4.00;3.00;;;;;-146.67;27.67;74226.41;5083800;27;62491;-80
2022/06/14 05:50:19;;;;;;;;;2.75;2.75;;;;;-146.67;27.50;74196.47;5081493;28;62036;-81
2022/06/14 05:52:55;;;;;;;;;4.50;3.50;;;;;-146.67;27.30;74170.50;5082635;28;61845;-79
2022/06/14 05:55:39;;;;;;;;;4.75;3.75;;;;;-146.67;27.45;74186.47;5081302;28;62343;-77
2022/06/14 05:58:12;;;;;;;;;5.25;2.25;;;;;-146.67;27.09;74176.50;5080871;28;61891;-77
2022/06/14 06:00:43;;;;;;;;;2.50;2.00;;;;;-146.67;27.25;74184.47;5083389;27;61797;-77
2022/06/14 06:03:14;;;;;;;;;6.00;2.75;;;;;-146.67;27.58;74182.50;5079994;28;62677;-77
2022/06/14 06:05:48;;;;;;;;;4.00;4.00;;;;;-146.67;27.14;74184.47;5081890;28;61992;-79
2022/06/14 06:08:16;;;;;;;;;7.00;4.75;;;;;-146.67;27.33;74190.47;5063328;28;61890;-78
2022/06/14 06:10:47;;;;;;;;;5.00;3.75;;;;;-146.67;27.17;74202.44;5063586;28;62072;-78
2022/06/14 06:13:23;;;;;;;;;3.25;2.00;;;;;-146.67;27.27;74200.44;5060920;28;63900;-78
2022/06/14 06:15:57;;;;;;;;;6.50;3.25;;;;;-146.67;27.19;74196.47;5063160;28;61966;-80
2022/06/14 06:18:50;;;;;;;;;3.00;2.00;;;;;-146.67;27.45;74196.47;5063498;28;61712;-78
2022/06/14 06:21:21;;;;;;;;;3.25;3.25;;;;;-146.67;27.39;74198.47;5059974;28;61844;-83
2022/06/14 06:24:07;;;;;;;;;2.00;2.00;;;;;-146.67;27.13;74160.53;5062892;28;62880;-79
2022/06/14 06:26:36;;;;;;;;;4.25;4.25;;;;;-146.67;26.61;74082.69;5062837;28;61787;-78
2022/06/14 06:29:31;;;;;;;;;4.25;4.25;;;;;-146.67;26.53;74058.72;5062986;28;61835;-78
2022/06/14 06:31:58;;;;;;;;;3.75;2.00;;;;;-146.67;26.37;74052.72;5063462;28;61972;-78
2022/06/14 06:34:25;;;;;;;;;4.50;4.00;;;;;-146.67;26.41;74084.66;5062344;28;62611;-81
2022/06/14 06:37:01;;;;;;;;;6.00;3.75;;;;;-146.67;26.64;74106.63;5069976;28;61972;-78
2022/06/14 06:39:36;;;;;;;;;2.50;1.75;;;;;-146.67;26.76;74130.59;5083191;27;62139;-77
2022/06/14 06:42:23;;;;;;;;;1.50;1.50;;;;;-146.67;27.07;74146.56;5082837;27;61869;-77
2022/06/14 06:45:09;;;;;;;;;5.75;2.75;;;;;-146.67;26.97;74152.53;5082468;27;61969;-78
2022/06/14 06:47:40;;;;;;;;;3.75;3.75;;;;;-146.67;27.26;74158.53;5081736;28;61997;-81
2022/06/14 06:50:18;;;;;;;;;2.00;2.00;;;;;-146.67;27.23;74162.53;5076042;27;61917;-77
2022/06/14 06:53:11;;;;;;;;;2.50;2.50;;;;;-146.67;27.13;74180.50;5076599;28;61924;-76
2022/06/14 06:56:06;;;;;;;;;5.00;2.00;;;;;-146.67;27.19;74176.50;5081035;28;61731;-76
2022/06/14 06:58:52;;;;;;;;;3.00;2.00;;;;;-146.67;27.10;74182.50;5081506;27;62151;-84
2022/06/14 07:01:32;;;;;;;;;5.00;3.00;;;;;-146.67;27.59;74186.47;5082139;28;61977;-78
2022/06/14 07:04:15;;;;;;;;;4.00;4.00;;;;;-146.67;27.30;74176.50;5083236;27;61877;-77
2022/06/14 07:06:56;;;;;;;;;5.00;2.00;;;;;-146.67;27.67;74176.50;5080841;27;61805;-77
2022/06/14 07:09:25;;;;;;;;;3.75;3.00;;;;;-146.67;27.47;74180.50;5080437;28;61879;-76
2022/06/14 07:12:07;;;;;;;;;3.00;3.00;;;;;-146.67;27.59;74174.50;5080169;28;61947;-75
2022/06/14 07:14:49;;;;;;;;;5.00;2.25;;;;;-146.67;27.56;74180.50;5082804;27;61808;-75
2022/06/14 07:17:22;;;;;;;;;3.00;3.00;;;;;-146.67;27.57;74182.50;5082099;28;61945;-75
2022/06/14 07:19:56;;;;;;;;;3.50;2.25;;;;;-146.67;27.45;74176.50;5082978;28;61772;-76
2022/06/14 07:22:38;;;;;;;;;4.00;4.00;;;;;-146.67;27.65;74172.50;5081066;28;61963;-75
2022/06/14 07:25:04;;;;;;;;;2.00;2.00;;;;;-146.67;27.29;74166.50;5082691;28;62081;-76
2022/06/14 07:27:43;;;;;;;;;2.50;2.25;;;;;-146.67;27.34;74162.53;5081694;27;62518;-75
2022/06/14 07:30:25;;;;;;;;;5.00;3.00;;;;;-146.67;27.29;74160.53;5082754;27;61769;-75
2022/06/14 07:32:55;;;;;;;;;3.25;3.00;;;;;-146.67;27.79;74154.53;5082638;27;61894;-75
2022/06/14 07:35:31;;;;;;;;;3.25;3.25;;;;;-146.67;27.16;74146.56;5082377;28;62114;-76
2022/06/14 07:38:25;;;;;;;;;4.00;3.00;;;;;-146.67;27.45;74132.56;5080409;28;64981;-75
2022/06/14 07:40:58;;;;;;;;;3.50;2.75;;;;;-146.67;27.37;74138.56;5082187;28;61849;-75
2022/06/14 07:43:36;;;;;;;;;3.50;3.00;;;;;-146.67;27.52;74138.56;5081386;28;61865;-75
2022/06/14 07:46:10;;;;;;;;;3.25;3.25;;;;;-146.67;27.08;74134.56;5082349;28;61897;-75
2022/06/14 07:49:06;;;;;;;;;2.75;2.75;;;;;-146.67;27.23;74128.59;5081409;27;61884;-76
2022/06/14 07:51:38;;;;;;;;;3.75;3.00;;;;;-146.67;27.33;74128.59;5078785;27;61887;-75
2022/06/14 07:54:08;;;;;;;;;3.50;2.75;;;;;-146.67;27.30;74132.56;5081813;27;61699;-75
2022/06/14 07:56:46;;;;;;;;;2.00;2.00;;;;;-146.67;27.22;74122.59;5081871;27;61736;-75
2022/06/14 07:59:16;;;;;;;;;3.00;2.25;;;;;-146.67;27.02;74112.63;5076419;27;61875;-75
2022/06/14 08:01:52;;;;;;;;;4.25;1.75;;;;;-146.67;26.88;74108.63;5060097;28;61761;-75
2022/06/14 08:04:32;;;;;;;;;2.75;1.75;;;;;-146.67;27.04;74096.66;5080578;28;61823;-75
2022/06/14 08:07:09;;;;;;;;;2.75;2.00;;;;;-146.67;26.73;74090.66;5115205;27;61825;-75
2022/06/14 08:09:59;;;;;;;;;3.00;3.00;;;;;-146.67;26.80;74078.69;5081527;27;62038;-75
2022/06/14 08:12:39;;;;;;;;;3.75;1.75;;;;;-146.67;27.07;74070.69;5080942;28;61740;-75
2022/06/14 08:15:08;;;;;;;;;3.00;3.00;;;;;-146.67;27.02;74064.72;5082077;28;61891;-75
2022/06/14 08:17:36;;;;;;;;;4.50;3.25;;;;;-146.67;26.82;74054.72;5081938;27;62103;-76
2022/06/14 08:20:19;;;;;;;;;4.75;2.25;;;;;-146.67;26.88;74056.72;5081476;28;62632;-75
2022/06/14 08:22:51;;;;;;;;;4.75;3.50;;;;;-146.67;26.67;74046.75;5081753;28;61699;-75
2022/06/14 08:25:21;;;;;;;;;3.50;3.50;;;;;-146.67;26.58;74040.75;5081848;27;61953;-75
2022/06/14 08:27:53;;;;;;;;;4.00;2.25;;;;;-146.67;26.19;74040.75;5080090;28;61923;-75
2022/06/14 08:30:29;;;;;;;;;4.00;2.75;;;;;-146.67;26.46;74028.78;5114299;27;63782;-75
2022/06/14 08:33:09;;;;;;;;;4.00;3.00;;;;;-146.67;26.39;74012.81;5114662;27;61995;-75
2022/06/14 08:35:43;;;;;;;;;3.50;2.75;;;;;-146.67;26.45;74000.81;5081536;28;61930;-75
2022/06/14 08:38:17;;;;;;;;;3.00;2.25;;;;;-146.67;26.33;73986.84;5081477;27;62092;-75
2022/06/14 08:41:08;;;;;;;;;4.00;1.50;;;;;-146.67;26.26;73970.88;5081043;27;62701;-75
2022/06/14 08:43:44;;;;;;;;;1.50;1.50;;;;;-146.67;25.87;73950.94;5114266;27;61982;-75
2022/06/14 08:46:30;;;;;;;;;3.00;1.50;;;;;-146.67;25.91;73944.94;5081704;28;61920;-75
2022/06/14 08:49:34;;;;;;;;;2.50;2.00;;;;;-146.67;26.01;73938.94;5081573;27;61704;-75
2022/06/14 08:52:27;;;;;;;;;4.00;4.00;;;;;-146.67;25.71;73932.97;5113288;27;62774;-75
2022/06/14 08:55:03;;;;;;;;;3.00;2.00;;;;;-146.67;25.57;73917.00;5083420;27;61835;-76
2022/06/14 08:57:52;;;;;;;;;3.00;2.00;;;;;-146.67;25.93;73930.97;5084691;27;61937;-75
2022/06/14 09:00:39;;;;;;;;;3.00;2.00;;;;;-146.67;26.08;73930.97;5085174;27;61940;-76
2022/06/14 09:03:26;;;;;;;;;2.50;2.25;;;;;-146.67;25.74;73924.97;5082716;28;63921;-75
2022/06/14 09:06:11;;;;;;;;;3.50;2.00;;;;;-146.67;25.39;73932.97;5084205;28;61797;-76
2022/06/14 09:08:50;;;;;;;;;4.00;1.00;;;;;-146.67;25.51;73924.97;5084373;27;61873;-76
2022/06/14 09:11:54;;;;;;;;;1.75;1.75;;;;;-146.67;25.50;73915.00;5084833;27;61729;-76
2022/06/14 09:14:44;;;;;;;;;1.75;1.75;;;;;-146.67;25.88;73901.03;5061154;28;62760;-76
2022/06/14 09:17:27;;;;;;;;;2.00;2.00;;;;;-146.67;25.45;73895.03;5061804;28;62024;-78
2022/06/14 09:20:18;;;;;;;;;0.75;0.75;;;;;-146.67;25.45;73883.06;5061787;28;62224;-78
2022/06/14 09:23:14;;;;;;;;;2.25;1.50;;;;;-146.67;25.08;73877.06;5045059;28;62352;-78
2022/06/14 09:25:59;;;;;;;;;2.25;2.25;;;;;-146.67;24.91;73865.09;5060927;28;61865;-78
2022/06/14 09:28:56;;;;;;;;;9.25;3.00;;;;;-146.67;25.05;73881.06;5044720;28;62035;-76
2022/06/14 09:31:37;;;;;;;;;2.00;2.00;;;;;-146.67;25.18;73877.06;5061755;28;61894;-75
2022/06/14 09:34:17;;;;;;;;;3.25;2.25;;;;;-146.67;25.22;73873.06;5061892;28;62633;-75
2022/06/14 09:37:13;;;;;;;;;3.00;3.00;;;;;-146.67;25.03;73887.03;5043505;28;63924;-75
2022/06/14 09:39:52;;;;;;;;;4.00;2.75;;;;;-146.67;25.37;73883.06;5044303;28;61813;-76
2022/06/14 09:42:23;;;;;;;;;1.25;1.25;;;;;-146.67;25.09;73887.03;5061042;28;62449;-76
2022/06/14 09:44:58;;;;;;;;;3.75;2.50;;;;;-146.67;25.22;73883.06;5069873;28;62220;-76
2022/06/14 09:47:47;;;;;;;;;3.75;2.75;;;;;-146.67;25.03;73843.13;5083490;27;62618;-75
2022/06/14 09:50:37;;;;;;;;;2.00;2.00;;;;;-146.67;24.93;73823.16;5082221;28;61886;-75
2022/06/14 09:53:27;;;;;;;;;2.75;1.75;;;;;-146.67;24.87;73807.19;5083730;27;61705;-75
2022/06/14 09:56:04;;;;;;;;;1.25;1.25;;;;;-146.67;24.65;73801.22;5083642;28;61762;-76
2022/06/14 09:58:45;;;;;;;;;3.00;3.00;;;;;-146.67;24.74;73791.22;5083227;28;63005;-76
2022/06/14 10:01:32;;;;;;;;;2.75;2.75;;;;;-146.67;24.99;73789.25;5083574;28;61940;-76
2022/06/14 10:04:32;;;;;;;;;3.75;3.00;;;;;-146.67;24.72;73789.25;5083049;27;62053;-76
2022/06/14 10:07:27;;;;;;;;;1.50;1.50;;;;;-146.67;24.95;73781.25;5083532;27;61897;-75
2022/06/14 10:10:16;;;;;;;;;3.75;2.25;;;;;-146.67;25.04;73795.22;5083215;28;62669;-76
2022/06/14 10:12:59;;;;;;;;;3.50;2.25;;;;;-146.67;24.97;73779.25;5081902;28;61922;-76
2022/06/14 10:15:43;;;;;;;;;3.00;3.00;;;;;-146.67;24.79;73801.22;5083890;27;62005;-76
2022/06/14 10:18:34;;;;;;;;;2.00;2.00;;;;;-146.67;24.61;73785.25;5082192;28;61792;-76
2022/06/14 10:21:00;;;;;;;;;4.00;2.50;;;;;-146.67;24.47;73791.22;5081397;28;63814;-75
2022/06/14 10:23:58;;;;;;;;;1.50;1.50;;;;;-146.67;24.69;73795.22;5083804;27;61892;-75
2022/06/14 10:30:06;;;;;;;;;3.00;3.00;;;;;-146.67;24.59;73763.28;5060531;28;62051;-76
2022/06/14 10:32:46;;;;;;;;;1.25;1.25;;;;;-146.67;24.47;73753.31;5050962;28;62235;-76
2022/06/14 10:35:24;;;;;;;;;3.75;3.00;;;;;-146.67;24.53;73729.34;5040315;28;61998;-77
2022/06/14 10:38:25;;;;;;;;;3.25;3.25;;;;;-146.67;24.41;73713.38;5040060;28;61971;-77
2022/06/14 10:41:08;;;;;;;;;4.50;2.50;;;;;-146.67;24.66;73683.44;5041854;28;62039;-76
2022/06/14 10:44:00;;;;;;;;;3.75;2.25;;;;;-146.67;24.36;73661.50;5046432;28;62149;-77
2022/06/14 10:46:39;;;;;;;;;3.00;3.00;;;;;-146.67;24.29;73651.50;5051305;28;61865;-77
2022/06/14 10:49:23;;;;;;;;;3.00;2.67;;;;;-146.67;24.62;73641.53;5056092;28;61933;-77
2022/06/14 10:52:36;;;;;;;;;3.00;3.00;;;;;-146.67;24.62;73625.56;5059991;28;61814;-76
2022/06/14 10:55:18;;;;;;;;;4.75;4.75;;;;;-146.67;24.27;73611.59;5026946;28;64748;-76
2022/06/14 10:57:59;;;;;;;;;4.00;4.00;;;;;-146.67;24.13;73601.59;5056311;28;62100;-77
2022/06/14 11:00:48;;;;;;;;;5.67;4.33;;;;;-146.67;24.19;73601.59;5051483;28;61869;-76
2022/06/14 11:03:32;;;;;;;;;3.00;3.00;;;;;-146.67;24.02;73603.59;5050017;28;61864;-77
2022/06/14 11:06:29;;;;;;;;;4.67;2.33;;;;;-146.67;24.11;73587.63;5075706;28;61743;-77
2022/06/14 11:09:21;;;;;;;;;2.00;1.67;;;;;-146.67;24.05;73565.69;5080932;28;61870;-77
2022/06/14 11:11:57;;;;;;;;;2.67;2.67;;;;;-146.67;23.88;73557.69;5079262;28;62352;-77
2022/06/14 11:14:47;;;;;;;;;3.00;3.00;;;;;-146.67;24.48;73547.72;5079705;28;61998;-77
2022/06/14 11:17:25;;;;;;;;;3.33;2.67;;;;;-146.67;23.71;73535.75;5078652;28;61958;-77
2022/06/14 11:19:53;;;;;;;;;4.67;4.00;;;;;-146.67;23.41;73511.78;5080384;28;62096;-77
2022/06/14 11:22:21;;;;;;;;;2.67;2.67;;;;;-146.67;24.00;73481.84;5079748;28;61862;-77
2022/06/14 11:24:52;;;;;;;;;2.33;1.67;;;;;-146.67;23.65;73465.88;5081145;27;61881;-77
2022/06/14 11:27:31;;;;;;;;;2.33;1.33;;;;;-146.67;23.76;73437.94;5093467;27;63970;-77
2022/06/14 11:30:21;;;;;;;;;3.00;2.00;;;;;-146.67;23.86;73417.97;5081615;28;62207;-77
2022/06/14 11:33:02;;;;;;;;;4.00;2.33;;;;;-146.67;23.75;73398.03;5080807;28;61840;-79
2022/06/14 11:35:52;;;;;;;;;4.33;3.00;;;;;-146.67;23.47;73386.03;5081818;28;61819;-79
2022/06/14 11:38:36;;;;;;;;;2.33;2.33;;;;;-146.67;23.54;73370.06;5078909;28;61961;-79
2022/06/14 11:41:07;;;;;;;;;6.67;4.00;;;;;-146.67;23.17;73348.13;5079867;28;61759;-79
2022/06/14 11:43:48;;;;;;;;;3.00;2.67;;;;;-146.67;23.25;73302.22;5076761;28;61967;-79
2022/06/14 11:46:40;;;;;;;;;3.33;2.00;;;;;-146.67;22.66;73152.53;5078241;28;61731;-79
2022/06/14 11:49:14;;;;;;;;;2.67;2.67;;;;;-146.67;22.08;73000.84;5077401;28;62616;-79
2022/06/14 11:52:01;;;;;;;;;2.33;2.33;;;;;-146.67;21.60;72869.13;5079541;27;62231;-78
2022/06/14 11:54:36;;;;;;;;;4.33;3.67;;;;;-146.67;21.15;72751.41;5078985;28;61836;-80
2022/06/14 11:57:15;;;;;;;;;1.00;1.00;;;;;-146.67;20.53;72625.69;5088953;27;62041;-79
2022/06/14 11:59:47;;;;;;;;;4.00;2.67;;;;;-146.67;20.47;72525.91;5079586;28;62666;-79
2022/06/14 12:02:39;;;;;;;;;4.00;4.00;;;;;-146.67;20.14;72386.22;5077533;28;62071;-79
2022/06/14 12:05:19;;;;;;;;;2.00;2.00;;;;;-146.67;19.90;72314.41;5070380;28;61857;-79
2022/06/14 12:08:10;;;;;;;;;3.33;2.67;;;;;-146.67;19.55;72220.63;5081668;27;62249;-79
2022/06/14 12:10:47;;;;;;;;;3.67;2.67;;;;;-146.67;19.70;72118.84;5081423;28;62617;-79
2022/06/14 12:13:34;;;;;;;;;2.00;2.00;;;;;-146.67;19.24;72037.06;5059770;28;61935;-79
2022/06/14 12:16:06;;;;;;;;;2.00;1.67;;;;;-146.67;18.89;71959.25;5060012;28;62116;-78
2022/06/14 12:18:37;;;;;;;;;3.00;3.00;;;;;-146.67;18.54;71893.41;5061648;28;61844;-79